sensor_id;sensor_type;location;lat;lon;timestamp;P1;durP1;ratioP1;P2;durP2;ratioP2
79414;SDS011;68864;44.972;19.612;2023-10-19T00:01:47;26.65;;;14.90;;
79414;SDS011;68864;44.972;19.612;2023-10-19T00:04:14;30.75;;;19.88;;
79414;SDS011;68864;44.972;19.612;2023-10-19T00:06:41;28.85;;;15.00;;
79414;SDS011;68864;44.972;19.612;2023-10-19T00:09:10;28.95;;;15.75;;
79414;SDS011;68864;44.972;19.612;2023-10-19T00:11:39;28.77;;;14.65;;
79414;SDS011;68864;44.972;19.612;2023-10-19T00:14:05;25.98;;;13.52;;
79414;SDS011;68864;44.972;19.612;2023-10-19T00:16:40;30.95;;;16.05;;
79414;SDS011;68864;44.972;19.612;2023-10-19T00:19:09;28.70;;;16.02;;
79414;SDS011;68864;44.972;19.612;2023-10-19T00:21:36;29.05;;;14.77;;
79414;SDS011;68864;44.972;19.612;2023-10-19T00:24:15;26.48;;;16.08;;
79414;SDS011;68864;44.972;19.612;2023-10-19T00:26:46;23.23;;;13.60;;
79414;SDS011;68864;44.972;19.612;2023-10-19T00:29:13;27.85;;;14.02;;
79414;SDS011;68864;44.972;19.612;2023-10-19T00:31:55;25.52;;;14.25;;
79414;SDS011;68864;44.972;19.612;2023-10-19T00:34:23;31.27;;;19.13;;
79414;SDS011;68864;44.972;19.612;2023-10-19T00:36:50;29.00;;;16.38;;
79414;SDS011;68864;44.972;19.612;2023-10-19T00:39:17;27.60;;;14.38;;
79414;SDS011;68864;44.972;19.612;2023-10-19T00:41:49;26.45;;;18.40;;
79414;SDS011;68864;44.972;19.612;2023-10-19T00:44:18;27.85;;;14.35;;
79414;SDS011;68864;44.972;19.612;2023-10-19T00:46:57;27.58;;;15.75;;
79414;SDS011;68864;44.972;19.612;2023-10-19T00:49:28;31.52;;;19.80;;
79414;SDS011;68864;44.972;19.612;2023-10-19T00:51:56;28.00;;;18.20;;
79414;SDS011;68864;44.972;19.612;2023-10-19T00:54:29;30.60;;;17.70;;
79414;SDS011;68864;44.972;19.612;2023-10-19T00:57:02;26.92;;;16.15;;
79414;SDS011;68864;44.972;19.612;2023-10-19T00:59:33;27.13;;;18.08;;
79414;SDS011;68864;44.972;19.612;2023-10-19T01:02:04;27.83;;;18.33;;
79414;SDS011;68864;44.972;19.612;2023-10-19T01:04:42;26.35;;;17.77;;
79414;SDS011;68864;44.972;19.612;2023-10-19T01:07:11;27.33;;;19.33;;
79414;SDS011;68864;44.972;19.612;2023-10-19T01:09:41;27.08;;;17.05;;
79414;SDS011;68864;44.972;19.612;2023-10-19T01:12:10;26.70;;;17.75;;
79414;SDS011;68864;44.972;19.612;2023-10-19T01:15:06;27.85;;;17.25;;
79414;SDS011;68864;44.972;19.612;2023-10-19T01:17:38;25.83;;;17.23;;
79414;SDS011;68864;44.972;19.612;2023-10-19T01:20:09;23.73;;;12.20;;
79414;SDS011;68864;44.972;19.612;2023-10-19T01:22:50;25.58;;;16.35;;
79414;SDS011;68864;44.972;19.612;2023-10-19T01:25:31;32.13;;;15.80;;
79414;SDS011;68864;44.972;19.612;2023-10-19T01:28:02;27.77;;;16.85;;
79414;SDS011;68864;44.972;19.612;2023-10-19T01:30:33;24.88;;;17.10;;
79414;SDS011;68864;44.972;19.612;2023-10-19T01:33:01;27.58;;;16.38;;
79414;SDS011;68864;44.972;19.612;2023-10-19T01:35:29;22.75;;;12.82;;
79414;SDS011;68864;44.972;19.612;2023-10-19T01:38:18;23.75;;;16.70;;
79414;SDS011;68864;44.972;19.612;2023-10-19T01:40:43;26.75;;;15.80;;
79414;SDS011;68864;44.972;19.612;2023-10-19T01:43:13;27.77;;;16.42;;
79414;SDS011;68864;44.972;19.612;2023-10-19T01:45:46;28.38;;;18.08;;
79414;SDS011;68864;44.972;19.612;2023-10-19T01:48:13;26.42;;;15.55;;
79414;SDS011;68864;44.972;19.612;2023-10-19T01:50:40;26.27;;;13.98;;
79414;SDS011;68864;44.972;19.612;2023-10-19T01:55:41;24.75;;;15.75;;
79414;SDS011;68864;44.972;19.612;2023-10-19T01:58:08;24.55;;;16.02;;
79414;SDS011;68864;44.972;19.612;2023-10-19T02:00:35;23.95;;;12.00;;
79414;SDS011;68864;44.972;19.612;2023-10-19T02:03:07;28.90;;;17.27;;
79414;SDS011;68864;44.972;19.612;2023-10-19T02:05:33;26.95;;;16.50;;
79414;SDS011;68864;44.972;19.612;2023-10-19T02:08:07;24.52;;;15.65;;
79414;SDS011;68864;44.972;19.612;2023-10-19T02:10:33;26.45;;;12.90;;
79414;SDS011;68864;44.972;19.612;2023-10-19T02:13:02;29.95;;;16.40;;
79414;SDS011;68864;44.972;19.612;2023-10-19T02:15:32;28.48;;;15.73;;
79414;SDS011;68864;44.972;19.612;2023-10-19T02:18:01;29.42;;;13.35;;
79414;SDS011;68864;44.972;19.612;2023-10-19T02:20:27;29.77;;;16.88;;
79414;SDS011;68864;44.972;19.612;2023-10-19T02:22:56;25.55;;;15.75;;
79414;SDS011;68864;44.972;19.612;2023-10-19T02:25:22;25.92;;;16.13;;
79414;SDS011;68864;44.972;19.612;2023-10-19T02:27:53;20.92;;;12.48;;
79414;SDS011;68864;44.972;19.612;2023-10-19T02:30:20;28.38;;;13.27;;
79414;SDS011;68864;44.972;19.612;2023-10-19T02:32:49;26.58;;;13.65;;
79414;SDS011;68864;44.972;19.612;2023-10-19T02:35:16;24.58;;;16.38;;
79414;SDS011;68864;44.972;19.612;2023-10-19T02:37:43;25.08;;;15.73;;
79414;SDS011;68864;44.972;19.612;2023-10-19T02:40:10;24.58;;;13.90;;
79414;SDS011;68864;44.972;19.612;2023-10-19T02:42:44;31.83;;;18.55;;
79414;SDS011;68864;44.972;19.612;2023-10-19T02:45:12;26.77;;;13.98;;
79414;SDS011;68864;44.972;19.612;2023-10-19T02:47:44;22.23;;;14.57;;
79414;SDS011;68864;44.972;19.612;2023-10-19T02:50:10;22.48;;;11.18;;
79414;SDS011;68864;44.972;19.612;2023-10-19T02:52:40;22.85;;;15.93;;
79414;SDS011;68864;44.972;19.612;2023-10-19T02:55:07;22.88;;;15.98;;
79414;SDS011;68864;44.972;19.612;2023-10-19T02:57:35;25.67;;;15.25;;
79414;SDS011;68864;44.972;19.612;2023-10-19T03:00:04;26.25;;;18.83;;
79414;SDS011;68864;44.972;19.612;2023-10-19T03:02:36;19.27;;;11.15;;
79414;SDS011;68864;44.972;19.612;2023-10-19T03:05:04;22.60;;;14.07;;
79414;SDS011;68864;44.972;19.612;2023-10-19T03:07:39;21.08;;;14.73;;
79414;SDS011;68864;44.972;19.612;2023-10-19T03:10:05;19.38;;;13.35;;
79414;SDS011;68864;44.972;19.612;2023-10-19T03:12:33;21.63;;;11.07;;
79414;SDS011;68864;44.972;19.612;2023-10-19T03:14:58;23.33;;;14.18;;
79414;SDS011;68864;44.972;19.612;2023-10-19T03:17:26;21.08;;;13.68;;
79414;SDS011;68864;44.972;19.612;2023-10-19T03:19:55;22.05;;;12.27;;
79414;SDS011;68864;44.972;19.612;2023-10-19T03:22:23;20.75;;;14.18;;
79414;SDS011;68864;44.972;19.612;2023-10-19T03:24:52;22.95;;;15.20;;
79414;SDS011;68864;44.972;19.612;2023-10-19T03:27:36;24.83;;;15.48;;
79414;SDS011;68864;44.972;19.612;2023-10-19T03:30:03;22.83;;;14.95;;
79414;SDS011;68864;44.972;19.612;2023-10-19T03:32:30;23.70;;;15.55;;
79414;SDS011;68864;44.972;19.612;2023-10-19T03:35:00;28.35;;;14.23;;
79414;SDS011;68864;44.972;19.612;2023-10-19T03:37:31;28.48;;;16.00;;
79414;SDS011;68864;44.972;19.612;2023-10-19T03:40:00;21.17;;;13.70;;
79414;SDS011;68864;44.972;19.612;2023-10-19T03:42:32;20.50;;;15.73;;
79414;SDS011;68864;44.972;19.612;2023-10-19T03:45:05;18.98;;;11.55;;
79414;SDS011;68864;44.972;19.612;2023-10-19T03:47:38;20.50;;;13.93;;
79414;SDS011;68864;44.972;19.612;2023-10-19T03:50:05;21.85;;;14.30;;
79414;SDS011;68864;44.972;19.612;2023-10-19T03:52:34;23.65;;;15.82;;
79414;SDS011;68864;44.972;19.612;2023-10-19T03:55:02;23.83;;;13.90;;
79414;SDS011;68864;44.972;19.612;2023-10-19T03:57:30;24.60;;;15.90;;
79414;SDS011;68864;44.972;19.612;2023-10-19T04:00:00;24.95;;;15.85;;
79414;SDS011;68864;44.972;19.612;2023-10-19T04:02:28;20.85;;;15.30;;
79414;SDS011;68864;44.972;19.612;2023-10-19T04:05:00;28.25;;;14.95;;
79414;SDS011;68864;44.972;19.612;2023-10-19T04:07:28;21.83;;;16.63;;
79414;SDS011;68864;44.972;19.612;2023-10-19T04:09:57;21.90;;;14.95;;
79414;SDS011;68864;44.972;19.612;2023-10-19T04:12:34;19.20;;;11.65;;
79414;SDS011;68864;44.972;19.612;2023-10-19T04:15:03;22.63;;;14.35;;
79414;SDS011;68864;44.972;19.612;2023-10-19T04:17:37;24.13;;;15.32;;
79414;SDS011;68864;44.972;19.612;2023-10-19T04:20:06;19.88;;;14.35;;
79414;SDS011;68864;44.972;19.612;2023-10-19T04:22:51;20.17;;;14.60;;
79414;SDS011;68864;44.972;19.612;2023-10-19T04:27:50;26.27;;;15.73;;
79414;SDS011;68864;44.972;19.612;2023-10-19T04:30:17;19.58;;;11.75;;
79414;SDS011;68864;44.972;19.612;2023-10-19T04:32:47;21.40;;;13.63;;
79414;SDS011;68864;44.972;19.612;2023-10-19T04:35:15;19.50;;;12.80;;
79414;SDS011;68864;44.972;19.612;2023-10-19T04:37:47;18.73;;;12.80;;
79414;SDS011;68864;44.972;19.612;2023-10-19T04:40:15;20.60;;;12.60;;
79414;SDS011;68864;44.972;19.612;2023-10-19T04:42:43;18.17;;;9.50;;
79414;SDS011;68864;44.972;19.612;2023-10-19T04:45:11;25.25;;;13.88;;
79414;SDS011;68864;44.972;19.612;2023-10-19T04:47:38;18.50;;;11.70;;
79414;SDS011;68864;44.972;19.612;2023-10-19T04:50:06;20.40;;;14.60;;
79414;SDS011;68864;44.972;19.612;2023-10-19T04:52:35;21.02;;;13.52;;
79414;SDS011;68864;44.972;19.612;2023-10-19T04:55:03;15.93;;;11.15;;
79414;SDS011;68864;44.972;19.612;2023-10-19T04:57:30;21.92;;;13.80;;
79414;SDS011;68864;44.972;19.612;2023-10-19T04:59:59;20.55;;;13.15;;
79414;SDS011;68864;44.972;19.612;2023-10-19T05:02:25;15.90;;;9.68;;
79414;SDS011;68864;44.972;19.612;2023-10-19T05:04:52;18.30;;;12.73;;
79414;SDS011;68864;44.972;19.612;2023-10-19T05:07:19;18.35;;;13.18;;
79414;SDS011;68864;44.972;19.612;2023-10-19T05:09:46;17.42;;;12.02;;
79414;SDS011;68864;44.972;19.612;2023-10-19T05:12:13;17.75;;;11.65;;
79414;SDS011;68864;44.972;19.612;2023-10-19T05:17:09;18.63;;;12.27;;
79414;SDS011;68864;44.972;19.612;2023-10-19T05:19:38;18.00;;;15.95;;
79414;SDS011;68864;44.972;19.612;2023-10-19T05:22:06;17.30;;;11.82;;
79414;SDS011;68864;44.972;19.612;2023-10-19T05:24:34;17.13;;;11.60;;
79414;SDS011;68864;44.972;19.612;2023-10-19T05:29:27;14.25;;;9.48;;
79414;SDS011;68864;44.972;19.612;2023-10-19T05:31:54;16.35;;;9.20;;
79414;SDS011;68864;44.972;19.612;2023-10-19T05:34:24;18.02;;;11.40;;
79414;SDS011;68864;44.972;19.612;2023-10-19T05:36:51;20.30;;;14.85;;
79414;SDS011;68864;44.972;19.612;2023-10-19T05:39:19;16.92;;;11.18;;
79414;SDS011;68864;44.972;19.612;2023-10-19T05:41:52;20.73;;;14.38;;
79414;SDS011;68864;44.972;19.612;2023-10-19T05:44:19;14.88;;;8.35;;
79414;SDS011;68864;44.972;19.612;2023-10-19T05:46:46;16.48;;;11.93;;
79414;SDS011;68864;44.972;19.612;2023-10-19T05:49:13;20.52;;;11.88;;
79414;SDS011;68864;44.972;19.612;2023-10-19T05:51:43;22.30;;;13.18;;
79414;SDS011;68864;44.972;19.612;2023-10-19T05:54:10;26.42;;;15.48;;
79414;SDS011;68864;44.972;19.612;2023-10-19T05:56:37;28.05;;;13.95;;
79414;SDS011;68864;44.972;19.612;2023-10-19T05:59:04;16.05;;;9.85;;
79414;SDS011;68864;44.972;19.612;2023-10-19T06:01:32;25.48;;;12.82;;
79414;SDS011;68864;44.972;19.612;2023-10-19T06:03:59;24.92;;;13.43;;
79414;SDS011;68864;44.972;19.612;2023-10-19T06:06:26;17.77;;;11.82;;
79414;SDS011;68864;44.972;19.612;2023-10-19T06:08:54;19.95;;;9.73;;
79414;SDS011;68864;44.972;19.612;2023-10-19T06:11:21;17.98;;;9.40;;
79414;SDS011;68864;44.972;19.612;2023-10-19T06:13:48;18.80;;;11.60;;
79414;SDS011;68864;44.972;19.612;2023-10-19T06:16:15;26.33;;;12.95;;
79414;SDS011;68864;44.972;19.612;2023-10-19T06:18:43;21.35;;;9.50;;
79414;SDS011;68864;44.972;19.612;2023-10-19T06:21:09;23.08;;;12.85;;
79414;SDS011;68864;44.972;19.612;2023-10-19T06:23:37;22.50;;;13.30;;
79414;SDS011;68864;44.972;19.612;2023-10-19T06:26:09;18.05;;;9.15;;
79414;SDS011;68864;44.972;19.612;2023-10-19T06:28:37;20.75;;;11.30;;
79414;SDS011;68864;44.972;19.612;2023-10-19T06:31:05;18.42;;;13.23;;
79414;SDS011;68864;44.972;19.612;2023-10-19T06:33:33;22.98;;;9.60;;
79414;SDS011;68864;44.972;19.612;2023-10-19T06:36:01;21.85;;;12.73;;
79414;SDS011;68864;44.972;19.612;2023-10-19T06:38:29;24.88;;;11.85;;
79414;SDS011;68864;44.972;19.612;2023-10-19T06:43:25;23.92;;;14.32;;
79414;SDS011;68864;44.972;19.612;2023-10-19T06:45:55;18.40;;;11.50;;
79414;SDS011;68864;44.972;19.612;2023-10-19T06:48:22;19.02;;;12.60;;
79414;SDS011;68864;44.972;19.612;2023-10-19T06:50:49;16.63;;;11.27;;
79414;SDS011;68864;44.972;19.612;2023-10-19T06:53:16;17.65;;;12.45;;
79414;SDS011;68864;44.972;19.612;2023-10-19T06:55:43;23.80;;;14.65;;
79414;SDS011;68864;44.972;19.612;2023-10-19T06:58:10;18.38;;;7.18;;
79414;SDS011;68864;44.972;19.612;2023-10-19T07:00:39;16.90;;;11.45;;
79414;SDS011;68864;44.972;19.612;2023-10-19T07:03:07;16.65;;;12.75;;
79414;SDS011;68864;44.972;19.612;2023-10-19T07:05:34;14.88;;;9.95;;
79414;SDS011;68864;44.972;19.612;2023-10-19T07:08:01;20.83;;;15.23;;
79414;SDS011;68864;44.972;19.612;2023-10-19T07:10:32;18.48;;;11.15;;
79414;SDS011;68864;44.972;19.612;2023-10-19T07:12:59;15.63;;;10.18;;
79414;SDS011;68864;44.972;19.612;2023-10-19T07:15:27;14.63;;;9.90;;
79414;SDS011;68864;44.972;19.612;2023-10-19T07:17:56;17.15;;;11.13;;
79414;SDS011;68864;44.972;19.612;2023-10-19T07:20:23;15.35;;;12.00;;
79414;SDS011;68864;44.972;19.612;2023-10-19T07:22:54;16.83;;;9.27;;
79414;SDS011;68864;44.972;19.612;2023-10-19T07:25:22;12.35;;;9.63;;
79414;SDS011;68864;44.972;19.612;2023-10-19T07:27:50;14.35;;;5.80;;
79414;SDS011;68864;44.972;19.612;2023-10-19T07:30:18;16.20;;;10.35;;
79414;SDS011;68864;44.972;19.612;2023-10-19T07:32:47;14.48;;;6.22;;
79414;SDS011;68864;44.972;19.612;2023-10-19T07:35:20;11.43;;;5.93;;
79414;SDS011;68864;44.972;19.612;2023-10-19T07:37:51;14.73;;;8.50;;
79414;SDS011;68864;44.972;19.612;2023-10-19T07:40:17;13.05;;;8.80;;
79414;SDS011;68864;44.972;19.612;2023-10-19T07:42:45;12.80;;;6.47;;
79414;SDS011;68864;44.972;19.612;2023-10-19T07:45:13;12.45;;;5.97;;
79414;SDS011;68864;44.972;19.612;2023-10-19T07:47:41;12.75;;;9.10;;
79414;SDS011;68864;44.972;19.612;2023-10-19T07:50:09;13.30;;;8.85;;
79414;SDS011;68864;44.972;19.612;2023-10-19T07:52:42;11.77;;;6.13;;
79414;SDS011;68864;44.972;19.612;2023-10-19T07:55:09;14.07;;;9.75;;
79414;SDS011;68864;44.972;19.612;2023-10-19T07:57:36;9.85;;;5.50;;
79414;SDS011;68864;44.972;19.612;2023-10-19T08:00:06;12.50;;;9.40;;
79414;SDS011;68864;44.972;19.612;2023-10-19T08:02:35;10.10;;;5.10;;
79414;SDS011;68864;44.972;19.612;2023-10-19T08:05:03;14.23;;;9.88;;
79414;SDS011;68864;44.972;19.612;2023-10-19T08:07:31;10.32;;;5.35;;
79414;SDS011;68864;44.972;19.612;2023-10-19T08:10:01;9.85;;;6.00;;
79414;SDS011;68864;44.972;19.612;2023-10-19T08:12:28;11.45;;;9.15;;
79414;SDS011;68864;44.972;19.612;2023-10-19T08:14:56;13.00;;;7.22;;
79414;SDS011;68864;44.972;19.612;2023-10-19T08:17:22;11.90;;;6.15;;
79414;SDS011;68864;44.972;19.612;2023-10-19T08:19:49;14.65;;;8.75;;
79414;SDS011;68864;44.972;19.612;2023-10-19T08:22:16;9.38;;;5.18;;
79414;SDS011;68864;44.972;19.612;2023-10-19T08:24:44;11.63;;;7.43;;
79414;SDS011;68864;44.972;19.612;2023-10-19T08:27:12;12.18;;;5.22;;
79414;SDS011;68864;44.972;19.612;2023-10-19T08:29:39;9.52;;;5.88;;
79414;SDS011;68864;44.972;19.612;2023-10-19T08:32:06;9.95;;;4.25;;
79414;SDS011;68864;44.972;19.612;2023-10-19T08:34:33;14.88;;;5.80;;
79414;SDS011;68864;44.972;19.612;2023-10-19T08:37:01;10.98;;;7.68;;
79414;SDS011;68864;44.972;19.612;2023-10-19T08:39:29;9.02;;;4.63;;
79414;SDS011;68864;44.972;19.612;2023-10-19T08:42:01;12.35;;;5.55;;
79414;SDS011;68864;44.972;19.612;2023-10-19T08:44:30;9.93;;;5.28;;
79414;SDS011;68864;44.972;19.612;2023-10-19T08:46:58;9.70;;;5.55;;
79414;SDS011;68864;44.972;19.612;2023-10-19T08:49:25;9.32;;;5.93;;
79414;SDS011;68864;44.972;19.612;2023-10-19T08:51:53;10.38;;;4.55;;
79414;SDS011;68864;44.972;19.612;2023-10-19T08:54:20;9.52;;;5.00;;
79414;SDS011;68864;44.972;19.612;2023-10-19T08:56:47;9.13;;;7.13;;
79414;SDS011;68864;44.972;19.612;2023-10-19T08:59:14;8.95;;;4.97;;
79414;SDS011;68864;44.972;19.612;2023-10-19T09:01:44;9.70;;;4.88;;
79414;SDS011;68864;44.972;19.612;2023-10-19T09:04:11;9.70;;;5.95;;
79414;SDS011;68864;44.972;19.612;2023-10-19T09:06:38;8.85;;;5.18;;
79414;SDS011;68864;44.972;19.612;2023-10-19T09:09:08;13.85;;;5.10;;
79414;SDS011;68864;44.972;19.612;2023-10-19T09:11:41;9.02;;;4.70;;
79414;SDS011;68864;44.972;19.612;2023-10-19T09:14:08;13.25;;;4.45;;
79414;SDS011;68864;44.972;19.612;2023-10-19T09:16:38;11.13;;;7.28;;
79414;SDS011;68864;44.972;19.612;2023-10-19T09:19:06;6.65;;;3.08;;
79414;SDS011;68864;44.972;19.612;2023-10-19T09:21:33;8.38;;;3.97;;
79414;SDS011;68864;44.972;19.612;2023-10-19T09:24:00;10.57;;;7.13;;
79414;SDS011;68864;44.972;19.612;2023-10-19T09:26:27;9.88;;;4.45;;
79414;SDS011;68864;44.972;19.612;2023-10-19T09:28:54;8.35;;;4.13;;
79414;SDS011;68864;44.972;19.612;2023-10-19T09:31:21;10.30;;;3.85;;
79414;SDS011;68864;44.972;19.612;2023-10-19T09:33:49;8.75;;;3.65;;
79414;SDS011;68864;44.972;19.612;2023-10-19T09:36:19;10.38;;;3.28;;
79414;SDS011;68864;44.972;19.612;2023-10-19T09:38:48;9.30;;;3.15;;
79414;SDS011;68864;44.972;19.612;2023-10-19T09:41:17;9.95;;;3.47;;
79414;SDS011;68864;44.972;19.612;2023-10-19T09:43:47;7.05;;;2.90;;
79414;SDS011;68864;44.972;19.612;2023-10-19T09:46:20;6.65;;;3.35;;
79414;SDS011;68864;44.972;19.612;2023-10-19T09:48:48;8.90;;;3.00;;
79414;SDS011;68864;44.972;19.612;2023-10-19T09:51:16;7.80;;;2.92;;
79414;SDS011;68864;44.972;19.612;2023-10-19T09:53:47;8.20;;;4.35;;
79414;SDS011;68864;44.972;19.612;2023-10-19T09:56:17;6.68;;;2.88;;
79414;SDS011;68864;44.972;19.612;2023-10-19T09:58:48;9.77;;;2.28;;
79414;SDS011;68864;44.972;19.612;2023-10-19T10:01:19;8.77;;;5.47;;
79414;SDS011;68864;44.972;19.612;2023-10-19T10:03:48;7.78;;;2.25;;
79414;SDS011;68864;44.972;19.612;2023-10-19T10:06:17;8.38;;;2.72;;
79414;SDS011;68864;44.972;19.612;2023-10-19T10:08:54;13.07;;;5.75;;
79414;SDS011;68864;44.972;19.612;2023-10-19T10:11:22;7.72;;;2.50;;
79414;SDS011;68864;44.972;19.612;2023-10-19T10:13:51;8.30;;;2.65;;
79414;SDS011;68864;44.972;19.612;2023-10-19T10:16:21;6.30;;;2.35;;
79414;SDS011;68864;44.972;19.612;2023-10-19T10:18:49;10.68;;;3.38;;
79414;SDS011;68864;44.972;19.612;2023-10-19T10:21:18;12.82;;;2.22;;
79414;SDS011;68864;44.972;19.612;2023-10-19T10:23:47;7.10;;;2.60;;
79414;SDS011;68864;44.972;19.612;2023-10-19T10:26:17;9.95;;;2.42;;
79414;SDS011;68864;44.972;19.612;2023-10-19T10:28:47;7.93;;;2.05;;
79414;SDS011;68864;44.972;19.612;2023-10-19T10:31:18;6.78;;;2.00;;
79414;SDS011;68864;44.972;19.612;2023-10-19T10:33:47;7.80;;;2.22;;
79414;SDS011;68864;44.972;19.612;2023-10-19T10:36:16;4.90;;;1.50;;
79414;SDS011;68864;44.972;19.612;2023-10-19T10:38:44;10.00;;;3.53;;
79414;SDS011;68864;44.972;19.612;2023-10-19T10:41:12;6.57;;;1.83;;
79414;SDS011;68864;44.972;19.612;2023-10-19T10:43:48;9.73;;;2.35;;
79414;SDS011;68864;44.972;19.612;2023-10-19T10:46:18;12.75;;;4.55;;
79414;SDS011;68864;44.972;19.612;2023-10-19T10:48:46;6.30;;;1.95;;
79414;SDS011;68864;44.972;19.612;2023-10-19T10:51:17;8.60;;;1.98;;
79414;SDS011;68864;44.972;19.612;2023-10-19T10:53:52;8.02;;;3.53;;
79414;SDS011;68864;44.972;19.612;2023-10-19T10:56:21;7.82;;;2.70;;
79414;SDS011;68864;44.972;19.612;2023-10-19T10:58:49;11.55;;;5.63;;
79414;SDS011;68864;44.972;19.612;2023-10-19T11:01:27;9.30;;;2.20;;
79414;SDS011;68864;44.972;19.612;2023-10-19T11:04:04;6.10;;;2.10;;
79414;SDS011;68864;44.972;19.612;2023-10-19T11:06:32;11.23;;;2.25;;
79414;SDS011;68864;44.972;19.612;2023-10-19T11:11:38;21.13;;;3.05;;
79414;SDS011;68864;44.972;19.612;2023-10-19T11:14:11;10.38;;;2.60;;
79414;SDS011;68864;44.972;19.612;2023-10-19T11:16:38;15.50;;;3.42;;
79414;SDS011;68864;44.972;19.612;2023-10-19T11:19:05;12.00;;;2.97;;
79414;SDS011;68864;44.972;19.612;2023-10-19T11:21:32;12.23;;;2.47;;
79414;SDS011;68864;44.972;19.612;2023-10-19T11:23:59;10.35;;;6.90;;
79414;SDS011;68864;44.972;19.612;2023-10-19T11:26:27;8.98;;;3.00;;
79414;SDS011;68864;44.972;19.612;2023-10-19T11:28:58;9.32;;;3.58;;
79414;SDS011;68864;44.972;19.612;2023-10-19T11:31:29;9.93;;;2.97;;
79414;SDS011;68864;44.972;19.612;2023-10-19T11:34:02;11.77;;;6.25;;
79414;SDS011;68864;44.972;19.612;2023-10-19T11:36:30;13.30;;;4.43;;
79414;SDS011;68864;44.972;19.612;2023-10-19T11:38:56;17.85;;;4.43;;
79414;SDS011;68864;44.972;19.612;2023-10-19T11:41:24;12.00;;;3.80;;
79414;SDS011;68864;44.972;19.612;2023-10-19T11:43:50;9.65;;;3.28;;
79414;SDS011;68864;44.972;19.612;2023-10-19T11:46:19;12.65;;;6.47;;
79414;SDS011;68864;44.972;19.612;2023-10-19T11:48:48;12.63;;;3.35;;
79414;SDS011;68864;44.972;19.612;2023-10-19T11:51:14;10.48;;;2.67;;
79414;SDS011;68864;44.972;19.612;2023-10-19T11:53:41;8.77;;;3.17;;
79414;SDS011;68864;44.972;19.612;2023-10-19T11:56:09;14.25;;;3.13;;
79414;SDS011;68864;44.972;19.612;2023-10-19T11:58:38;8.93;;;3.30;;
79414;SDS011;68864;44.972;19.612;2023-10-19T12:01:07;8.05;;;3.10;;
79414;SDS011;68864;44.972;19.612;2023-10-19T12:03:38;10.35;;;3.67;;
79414;SDS011;68864;44.972;19.612;2023-10-19T12:06:05;11.95;;;3.33;;
79414;SDS011;68864;44.972;19.612;2023-10-19T12:08:33;7.93;;;3.92;;
79414;SDS011;68864;44.972;19.612;2023-10-19T12:11:00;10.00;;;2.75;;
79414;SDS011;68864;44.972;19.612;2023-10-19T12:13:29;11.10;;;3.15;;
79414;SDS011;68864;44.972;19.612;2023-10-19T12:18:23;13.05;;;5.97;;
79414;SDS011;68864;44.972;19.612;2023-10-19T12:20:52;10.18;;;3.00;;
79414;SDS011;68864;44.972;19.612;2023-10-19T12:23:21;12.48;;;4.10;;
79414;SDS011;68864;44.972;19.612;2023-10-19T12:25:49;9.18;;;3.80;;
79414;SDS011;68864;44.972;19.612;2023-10-19T12:28:16;14.98;;;4.20;;
79414;SDS011;68864;44.972;19.612;2023-10-19T12:30:43;12.07;;;4.15;;
79414;SDS011;68864;44.972;19.612;2023-10-19T12:33:10;12.27;;;3.33;;
79414;SDS011;68864;44.972;19.612;2023-10-19T12:35:38;14.00;;;4.10;;
79414;SDS011;68864;44.972;19.612;2023-10-19T12:38:16;18.67;;;8.00;;
79414;SDS011;68864;44.972;19.612;2023-10-19T12:40:43;11.73;;;4.85;;
79414;SDS011;68864;44.972;19.612;2023-10-19T12:43:11;11.02;;;3.83;;
79414;SDS011;68864;44.972;19.612;2023-10-19T12:45:38;12.27;;;4.15;;
79414;SDS011;68864;44.972;19.612;2023-10-19T12:48:06;12.98;;;4.45;;
79414;SDS011;68864;44.972;19.612;2023-10-19T12:50:36;13.32;;;4.25;;
79414;SDS011;68864;44.972;19.612;2023-10-19T12:53:03;13.15;;;8.70;;
79414;SDS011;68864;44.972;19.612;2023-10-19T12:55:32;11.98;;;4.50;;
79414;SDS011;68864;44.972;19.612;2023-10-19T12:58:00;14.10;;;4.65;;
79414;SDS011;68864;44.972;19.612;2023-10-19T13:00:32;11.60;;;8.07;;
79414;SDS011;68864;44.972;19.612;2023-10-19T13:03:06;12.90;;;7.88;;
79414;SDS011;68864;44.972;19.612;2023-10-19T13:05:34;10.02;;;4.32;;
79414;SDS011;68864;44.972;19.612;2023-10-19T13:08:02;11.90;;;4.75;;
79414;SDS011;68864;44.972;19.612;2023-10-19T13:10:33;9.95;;;4.75;;
79414;SDS011;68864;44.972;19.612;2023-10-19T13:13:02;7.70;;;3.47;;
79414;SDS011;68864;44.972;19.612;2023-10-19T13:15:31;11.82;;;2.92;;
79414;SDS011;68864;44.972;19.612;2023-10-19T13:17:59;8.60;;;1.95;;
79414;SDS011;68864;44.972;19.612;2023-10-19T13:20:27;8.43;;;1.77;;
79414;SDS011;68864;44.972;19.612;2023-10-19T13:22:59;9.77;;;2.20;;
79414;SDS011;68864;44.972;19.612;2023-10-19T13:25:25;5.88;;;2.28;;
79414;SDS011;68864;44.972;19.612;2023-10-19T13:28:06;9.57;;;2.13;;
79414;SDS011;68864;44.972;19.612;2023-10-19T13:30:41;7.13;;;1.40;;
79414;SDS011;68864;44.972;19.612;2023-10-19T13:33:09;12.38;;;1.92;;
79414;SDS011;68864;44.972;19.612;2023-10-19T13:35:36;9.75;;;1.95;;
79414;SDS011;68864;44.972;19.612;2023-10-19T13:38:04;9.07;;;2.15;;
79414;SDS011;68864;44.972;19.612;2023-10-19T13:40:33;10.02;;;1.52;;
79414;SDS011;68864;44.972;19.612;2023-10-19T13:43:01;7.40;;;1.25;;
79414;SDS011;68864;44.972;19.612;2023-10-19T13:45:31;8.20;;;1.50;;
79414;SDS011;68864;44.972;19.612;2023-10-19T13:47:58;8.10;;;1.80;;
79414;SDS011;68864;44.972;19.612;2023-10-19T13:50:26;7.05;;;1.65;;
79414;SDS011;68864;44.972;19.612;2023-10-19T13:52:53;7.65;;;2.47;;
79414;SDS011;68864;44.972;19.612;2023-10-19T13:55:21;5.95;;;1.80;;
79414;SDS011;68864;44.972;19.612;2023-10-19T13:57:49;9.05;;;1.92;;
79414;SDS011;68864;44.972;19.612;2023-10-19T14:00:16;7.88;;;2.00;;
79414;SDS011;68864;44.972;19.612;2023-10-19T14:02:51;5.03;;;1.77;;
79414;SDS011;68864;44.972;19.612;2023-10-19T14:05:19;8.25;;;1.58;;
79414;SDS011;68864;44.972;19.612;2023-10-19T14:07:49;9.02;;;1.73;;
79414;SDS011;68864;44.972;19.612;2023-10-19T14:10:17;7.30;;;1.33;;
79414;SDS011;68864;44.972;19.612;2023-10-19T14:12:45;12.40;;;1.58;;
79414;SDS011;68864;44.972;19.612;2023-10-19T14:15:13;7.63;;;2.08;;
79414;SDS011;68864;44.972;19.612;2023-10-19T14:17:40;8.63;;;5.97;;
79414;SDS011;68864;44.972;19.612;2023-10-19T14:20:09;7.63;;;2.55;;
79414;SDS011;68864;44.972;19.612;2023-10-19T14:22:41;8.77;;;2.28;;
79414;SDS011;68864;44.972;19.612;2023-10-19T14:25:10;10.27;;;4.88;;
79414;SDS011;68864;44.972;19.612;2023-10-19T14:27:41;7.90;;;2.20;;
79414;SDS011;68864;44.972;19.612;2023-10-19T14:30:10;10.73;;;2.75;;
79414;SDS011;68864;44.972;19.612;2023-10-19T14:32:39;12.25;;;3.30;;
79414;SDS011;68864;44.972;19.612;2023-10-19T14:35:08;9.30;;;2.35;;
79414;SDS011;68864;44.972;19.612;2023-10-19T14:37:36;9.95;;;2.38;;
79414;SDS011;68864;44.972;19.612;2023-10-19T14:42:35;14.32;;;2.90;;
79414;SDS011;68864;44.972;19.612;2023-10-19T14:45:04;12.38;;;4.55;;
79414;SDS011;68864;44.972;19.612;2023-10-19T14:47:36;16.33;;;6.38;;
79414;SDS011;68864;44.972;19.612;2023-10-19T14:50:06;18.58;;;5.93;;